Latest Weather Observations for Moruya Airport

IDN60801

Issued at 5:34 pm EDT Saturday 28 February 2015 (issued every 30 minutes, with the page automatically refreshed every 10 minutes)

About weather observations | Map of weather stations | Latest weather observations for NSW | Other Formats
Station Details ID: 069148 Name: MORUYA AIRPORT AWS Lat: -35.90 Lon: 150.14 Height: 4.0 m
Data from the previous 72 hours. | See also: Recent months for locations in New South Wales
Date/Time
EDT
Temp
°C
App
Temp
°C
Dew
Point
Rel
Hum
%
Delta-T
°C
Wind Press
QNH
hPa
Press
MSL
hPa
Rain
since 9 am
mm
Dir
 
Spd
km/h
Gust
km/h
Spd
kts
Gust
kts
28/05:30pm 25.0 24.7 21.1 79 2.6 NNE 24 32 13 17 1004.8 1004.7 0.0
28/05:00pm 25.1 24.9 21.2 79 2.6 NNE 24 30 13 16 1005.2 1005.1 0.0
28/04:30pm 25.1 25.1 21.6 81 2.3 NE 24 32 13 17 1005.4 1005.3 0.0
28/04:00pm 25.1 24.5 21.2 79 2.6 NNE 26 35 14 19 1005.4 1005.3 0.0
28/03:30pm 25.3 25.0 21.8 81 2.3 NE 26 33 14 18 1005.9 1005.8 0.0
28/03:00pm 25.2 25.4 22.1 83 2.1 NE 24 33 13 18 1006.3 1006.2 0.0
28/02:30pm 25.1 25.2 21.8 82 2.2 NE 24 30 13 16 1006.8 1006.7 0.0
28/02:00pm 25.2 26.0 21.7 81 2.3 NE 20 26 11 14 1007.2 1007.1 0.0
28/01:30pm 24.6 25.2 21.1 81 2.3 NE 19 22 10 12 1007.7 1007.6 0.0
28/01:00pm 24.1 25.1 21.0 83 2.0 NE 17 20 9 11 1008.2 1008.1 0.0
28/12:30pm 24.1 25.8 21.6 86 1.7 ENE 15 19 8 10 1008.6 1008.5 0.0
28/12:00pm 23.6 26.3 21.3 87 1.5 NE 9 13 5 7 1009.1 1009.0 0.0
28/11:46am 22.5 24.7 21.1 92 0.9 NE 11 13 6 7 1009.3 1009.2 0.0
28/11:30am 21.7 24.0 20.7 94 0.6 NNE 9 13 5 7 1009.5 1009.4 0.0
28/11:27am 21.6 23.9 20.6 94 0.6 NNE 9 13 5 7 1009.4 1009.3 0.0
28/11:00am 21.5 22.9 20.3 93 0.8 ENE 13 17 7 9 1009.1 1009.0 0.0
28/10:30am 22.4 25.2 20.9 91 1.0 ENE 7 11 4 6 1009.7 1009.6 0.0
28/10:00am 21.4 23.6 20.4 94 0.6 ENE 9 11 5 6 1010.0 1009.9 0.0
28/09:36am 21.6 24.4 20.9 96 0.5 ENE 7 9 4 5 1010.0 1009.9 0.0
28/09:30am 21.1 23.9 20.8 98 0.2 ENE 7 9 4 5 1010.1 1010.0 0.0
28/09:20am 21.1 24.2 21.1 100 0.0 ENE 6 9 3 5 1010.0 1009.9 0.0
28/09:00am 20.5 24.5 20.5 100 0.0 CALM 0 0 0 0 1010.1 1010.0 0.0
28/08:51am 19.7 23.3 19.7 100 0.0 CALM 0 0 0 0 1010.0 1009.9 0.0
28/08:30am 19.2 22.5 19.2 100 0.0 CALM 0 0 0 0 1009.9 1009.8 0.0
28/08:00am 18.6 21.3 18.6 100 0.0 NNE 2 6 1 3 1009.7 1009.6 0.0
28/07:52am 18.7 21.8 18.7 100 0.0 CALM 0 0 0 0 1009.6 1009.5 0.0
28/07:37am 18.3 21.2 18.3 100 0.0 CALM 0 0 0 0 1009.7 1009.6 0.0
28/07:30am 18.2 21.1 18.2 100 0.0 CALM 0 0 0 0 1009.7 1009.6 0.0
28/07:00am 17.7 20.4 17.7 100 0.0 CALM 0 0 0 0 1009.4 1009.3 0.0
28/06:30am 17.8 20.5 17.8 100 0.0 CALM 0 0 0 0 1009.1 1009.0 0.0
28/06:21am 17.9 20.7 17.9 100 0.0 CALM 0 6 0 3 1009.0 1008.9 0.0
28/05:30am 17.6 20.2 17.6 100 0.0 CALM 0 0 0 0 1008.9 1008.8 0.0
28/05:00am 17.5 20.1 17.5 100 0.0 CALM 0 0 0 0 1008.8 1008.7 0.0
28/04:30am 17.4 20.0 17.4 100 0.0 CALM 0 0 0 0 1009.0 1008.9 0.0
28/04:00am 17.5 20.1 17.5 100 0.0 CALM 0 0 0 0 1009.2 1009.1 0.0
28/03:30am 17.5 20.1 17.5 100 0.0 CALM 0 0 0 0 1009.3 1009.2 0.0
28/03:00am 17.5 20.1 17.5 100 0.0 CALM 0 0 0 0 1009.5 1009.4 0.0
28/02:30am 17.8 20.5 17.8 100 0.0 CALM 0 0 0 0 1009.4 1009.3 0.0
28/02:02am 18.1 21.0 18.1 100 0.0 CALM 0 0 0 0 1009.5 1009.4 0.0
28/02:00am 18.1 21.0 18.1 100 0.0 CALM 0 0 0 0 1009.5 1009.4 0.0
28/01:50am 18.1 21.0 18.1 100 0.0 CALM 0 0 0 0 1009.6 1009.5 0.0
28/01:33am 18.1 21.0 18.1 100 0.0 CALM 0 0 0 0 1009.8 1009.7 0.0
28/01:30am 18.2 21.1 18.2 100 0.0 CALM 0 0 0 0 1009.8 1009.7 0.0
28/01:00am 18.7 21.8 18.7 100 0.0 CALM 0 0 0 0 1009.9 1009.8 0.0
28/12:30am 19.0 22.3 19.0 100 0.0 CALM 0 0 0 0 1009.9 1009.8 0.0
28/12:00am 19.5 22.6 19.5 100 0.0 WNW 2 6 1 3 1010.3 1010.1 0.0
 
Date/Time
EDT
Temp
°C
App
Temp
°C
Dew
Point
Rel
Hum
%
Delta-T
°C
Wind Press
QNH
hPa
Press
MSL
hPa
Rain
since 9 am
mm
Dir
 
Spd
km/h
Gust
km/h
Spd
kts
Gust
kts
27/11:30pm 19.2 21.4 19.2 100 0.0 WNW 6 7 3 4 1010.7 1010.6 0.0
27/11:00pm 19.6 22.0 19.6 100 0.0 NW 6 9 3 5 1010.5 1010.4 0.0
27/10:30pm 20.0 23.7 20.0 100 0.0 CALM 0 0 0 0 1010.7 1010.6 0.0
27/10:00pm 20.5 24.5 20.5 100 0.0 CALM 0 0 0 0 1010.7 1010.6 0.0
27/09:30pm 20.7 23.4 20.7 100 0.0 SW 7 9 4 5 1010.7 1010.6 0.0
27/09:00pm 20.1 23.7 19.8 98 0.2 CALM 0 0 0 0 1010.1 1010.0 0.0
27/08:30pm 20.9 23.7 19.7 93 0.8 N 4 7 2 4 1009.8 1009.7 0.0
27/08:00pm 21.4 23.4 20.0 92 0.9 NNE 9 13 5 7 1009.3 1009.2 0.0
27/07:30pm 22.4 23.2 19.9 86 1.6 NNE 15 19 8 10 1008.8 1008.7 0.0
27/07:00pm 23.0 23.3 19.6 81 2.2 NNE 17 20 9 11 1008.6 1008.5 0.0
27/06:30pm 23.6 23.9 19.7 79 2.5 NNE 17 20 9 11 1008.3 1008.2 0.0
27/06:00pm 23.7 23.6 20.0 80 2.4 NE 20 28 11 15 1008.0 1007.9 0.0
27/05:30pm 24.0 23.6 19.3 75 3.0 NE 20 26 11 14 1007.9 1007.8 0.0
27/05:00pm 24.3 23.9 19.4 74 3.1 NE 20 28 11 15 1008.0 1007.9 0.0
27/04:30pm 24.2 24.1 19.9 77 2.8 NE 20 28 11 15 1008.0 1007.9 0.0
27/04:00pm 24.5 24.7 20.6 79 2.6 NE 20 28 11 15 1008.0 1007.9 0.0
27/03:30pm 24.3 24.5 20.2 78 2.7 NE 19 26 10 14 1008.3 1008.2 0.0
27/03:00pm 24.1 24.1 20.2 79 2.5 NE 20 28 11 15 1008.6 1008.5 0.0
27/02:30pm 24.4 24.4 20.9 81 2.3 NE 22 26 12 14 1009.2 1009.1 0.0
27/02:00pm 24.1 23.8 20.4 80 2.4 NE 22 28 12 15 1009.4 1009.3 0.0
27/01:30pm 23.9 24.6 21.2 85 1.8 ENE 19 22 10 12 1009.9 1009.8 0.0
27/01:00pm 23.8 24.2 20.7 83 2.0 ENE 19 22 10 12 1010.1 1010.0 0.0
27/12:30pm 24.0 25.1 21.3 85 1.8 ENE 17 20 9 11 1010.4 1010.3 0.0
27/12:00pm 23.6 24.3 20.5 83 2.0 NE 17 24 9 13 1010.7 1010.6 0.0
27/11:30am 22.9 23.8 20.1 84 1.8 NE 15 26 8 14 1010.9 1010.8 0.0
27/11:00am 21.9 23.9 20.0 89 1.2 ESE 9 13 5 7 1011.1 1011.0 0.0
27/10:30am 21.8 23.4 19.9 89 1.2 E 11 15 6 8 1011.2 1011.1 0.0
27/10:00am 21.7 23.3 20.0 90 1.1 E 11 13 6 7 1011.0 1010.9 0.0
27/09:30am 21.3 24.5 19.8 91 1.0 E 2 7 1 4 1010.9 1010.8 0.0
27/09:00am 20.6 24.4 20.1 97 0.3 CALM 0 0 0 0 1010.8 1010.7 0.0
27/08:40am 19.5 23.0 19.5 100 0.0 CALM 0 0 0 0 1010.7 1010.6 0.0
27/08:30am 19.0 22.3 19.0 100 0.0 CALM 0 0 0 0 1010.7 1010.6 0.0
27/08:24am 19.1 22.4 19.1 100 0.0 CALM 0 0 0 0 1010.8 1010.7 0.0
27/08:00am 18.7 21.8 18.7 100 0.0 CALM 0 0 0 0 1010.7 1010.6 0.0
27/07:45am 17.7 20.4 17.7 100 0.0 CALM 0 0 0 0 1010.6 1010.5 0.0
27/07:30am 16.4 18.6 16.4 100 0.0 CALM 0 0 0 0 1010.4 1010.3 0.0
27/07:00am 15.7 17.6 15.7 100 0.0 CALM 0 0 0 0 1010.3 1010.2 0.0
27/06:51am 16.1 18.1 16.1 100 0.0 CALM 0 0 0 0 1010.2 1010.1 0.0
27/06:30am 15.8 17.7 15.8 100 0.0 CALM 0 0 0 0 1009.8 1009.7 0.0
27/06:00am 16.3 18.4 16.3 100 0.0 CALM 0 0 0 0 1009.7 1009.6 0.0
27/05:50am 16.2 18.3 16.2 100 0.0 CALM 0 0 0 0 1009.7 1009.6 0.0
27/05:48am 16.3 18.4 16.3 100 0.0 CALM 0 0 0 0 1009.7 1009.6 0.0
27/05:30am 16.8 19.1 16.8 100 0.0 CALM 0 0 0 0 1009.6 1009.5 0.0
27/05:23am 16.9 19.3 16.9 100 0.0 CALM 0 0 0 0 1009.6 1009.5 0.0
27/05:00am 16.6 18.8 16.6 100 0.0 CALM 0 0 0 0 1009.7 1009.6 0.0
27/04:30am 16.6 18.8 16.6 100 0.0 CALM 0 0 0 0 1009.8 1009.7 0.0
27/04:24am 16.7 19.0 16.7 100 0.0 CALM 0 0 0 0 1009.8 1009.7 0.0
27/04:00am 16.8 19.1 16.8 100 0.0 CALM 0 0 0 0 1009.6 1009.5 0.0
27/03:30am 17.2 19.7 17.2 100 0.0 CALM 0 0 0 0 1009.7 1009.6 0.0
27/03:19am 17.4 20.0 17.4 100 0.0 CALM 0 0 0 0 1009.8 1009.7 0.0
27/03:00am 17.7 20.4 17.7 100 0.0 CALM 0 0 0 0 1009.8 1009.7 0.0
27/02:30am 17.9 20.7 17.9 100 0.0 CALM 0 0 0 0 1010.0 1009.9 0.0
27/02:00am 17.9 20.7 17.9 100 0.0 CALM 0 0 0 0 1010.1 1010.0 0.0
27/01:30am 18.6 21.7 18.6 100 0.0 CALM 0 0 0 0 1010.4 1010.3 0.0
27/01:00am 19.0 21.7 18.7 98 0.2 W 2 6 1 3 1010.6 1010.5 0.0
27/12:30am 19.8 23.2 19.3 97 0.3 CALM 0 0 0 0 1010.7 1010.6 0.0
27/12:00am 20.0 23.4 19.3 96 0.4 CALM 0 0 0 0 1010.8 1010.7 0.0
 
Date/Time
EDT
Temp
°C
App
Temp
°C
Dew
Point
Rel
Hum
%
Delta-T
°C
Wind Press
QNH
hPa
Press
MSL
hPa
Rain
since 9 am
mm
Dir
 
Spd
km/h
Gust
km/h
Spd
kts
Gust
kts
26/11:30pm 20.1 23.4 19.1 94 0.6 CALM 0 6 0 3 1010.8 1010.7 0.0
26/11:00pm 19.8 21.6 18.8 94 0.6 WSW 7 9 4 5 1011.0 1010.9 0.0
26/10:30pm 20.0 22.6 19.2 95 0.5 WSW 4 6 2 3 1011.0 1010.9 0.0
26/10:00pm 20.2 22.1 18.5 90 1.1 SW 6 7 3 4 1010.9 1010.8 0.0
26/09:30pm 20.5 21.6 17.9 85 1.6 SSW 9 11 5 6 1010.8 1010.7 0.0
26/09:00pm 20.8 22.1 17.6 82 2.0 S 7 9 4 5 1010.3 1010.2 0.0
26/08:30pm 21.0 21.3 17.0 78 2.4 S 11 13 6 7 1009.9 1009.8 0.0
26/08:00pm 21.2 22.0 17.4 79 2.3 SSW 9 13 5 7 1009.2 1009.1 0.0
26/07:30pm 21.8 23.5 18.4 81 2.1 SSW 7 13 4 7 1008.6 1008.5 0.0
26/07:00pm 22.8 24.7 19.0 79 2.4 S 7 11 4 6 1008.1 1008.0 0.0
26/06:30pm 22.8 24.0 18.3 76 2.8 S 9 11 5 6 1007.9 1007.8 0.0
26/06:00pm 23.3 25.0 18.4 74 3.1 ESE 7 9 4 5 1007.4 1007.3 0.0
26/05:30pm 23.0 24.8 18.7 77 2.7 E 7 9 4 5 1007.2 1007.1 0.0
26/05:00pm 23.0 25.5 20.3 85 1.8 ENE 7 9 4 5 1006.8 1006.7 0.0
26/04:30pm 23.2 25.8 20.0 82 2.1 ENE 6 9 3 5 1006.7 1006.6 0.0
26/04:00pm 23.5 25.8 19.8 80 2.4 ENE 7 9 4 5 1006.7 1006.6 0.0
26/03:30pm 23.9 25.6 19.4 76 2.9 NE 9 13 5 7 1006.8 1006.7 0.0
26/03:00pm 23.3 25.3 19.9 81 2.2 ENE 9 11 5 6 1007.1 1007.0 0.0
26/02:30pm 23.5 25.4 19.8 80 2.4 ENE 9 11 5 6 1007.2 1007.1 0.0
26/02:00pm 22.7 23.9 19.1 80 2.3 NE 11 15 6 8 1007.4 1007.3 0.0
26/01:30pm 22.8 23.7 19.2 80 2.3 NE 13 17 7 9 1007.6 1007.5 0.0
26/01:00pm 22.6 23.5 19.2 81 2.2 NE 13 17 7 9 1007.6 1007.5 0.0
26/12:30pm 22.2 22.7 19.2 83 1.9 NE 15 17 8 9 1008.0 1007.9 0.0
26/12:00pm 22.3 22.8 19.3 83 1.9 ENE 15 17 8 9 1008.3 1008.2 0.0
26/11:30am 21.8 21.7 18.8 83 1.9 NE 17 19 9 10 1008.5 1008.4 0.0
26/11:00am 21.8 22.6 19.0 84 1.8 NE 13 15 7 8 1008.9 1008.8 0.0
26/10:30am 21.9 23.0 17.9 78 2.5 N 9 13 5 7 1009.0 1008.9 0.0
26/10:00am 21.7 22.5 17.3 76 2.7 N 9 13 5 7 1008.9 1008.8 0.0
26/09:30am 20.9 21.8 17.5 81 2.1 N 9 13 5 7 1009.0 1008.9 0.0
26/09:00am 19.7 20.0 17.1 85 1.6 NNW 11 15 6 8 1009.2 1009.1 0.4
26/08:30am 18.9 19.7 17.2 90 1.0 N 9 15 5 8 1009.2 1009.1 0.4
26/08:00am 17.6 18.3 17.1 97 0.3 N 9 15 5 8 1009.2 1009.1 0.4
26/07:30am 17.4 18.0 16.8 96 0.4 N 9 11 5 6 1009.3 1009.2 0.4
26/07:00am 16.9 17.3 16.3 96 0.4 NNW 9 11 5 6 1009.3 1009.2 0.4
26/06:30am 17.2 17.6 16.4 95 0.5 NNW 9 13 5 7 1009.4 1009.3 0.4
26/06:00am 17.0 17.6 16.8 99 0.1 NNW 9 13 5 7 1009.4 1009.3 0.4
26/05:30am 16.6 17.5 16.6 100 0.0 NW 7 9 4 5 1009.5 1009.4 0.4
26/05:00am 16.5 17.6 16.5 100 0.0 W 6 7 3 4 1009.8 1009.7 0.4
26/04:30am 16.7 19.0 16.7 100 0.0 CALM 0 0 0 0 1010.1 1010.0 0.4
26/04:00am 16.7 19.0 16.7 100 0.0 CALM 0 0 0 0 1010.4 1010.3 0.4
26/03:30am 16.8 19.1 16.8 100 0.0 CALM 0 0 0 0 1010.8 1010.7 0.4
26/03:00am 16.7 19.0 16.7 100 0.0 CALM 0 0 0 0 1011.2 1011.1 0.4
26/02:54am 16.7 19.0 16.7 100 0.0 CALM 0 0 0 0 1011.3 1011.2 0.4
26/02:36am 17.0 19.4 17.0 100 0.0 CALM 0 0 0 0 1011.5 1011.4 0.4
26/02:30am 17.2 19.7 17.2 100 0.0 CALM 0 0 0 0 1011.6 1011.5 0.4
26/02:00am 17.3 19.6 16.8 97 0.3 CALM 0 6 0 3 1012.1 1012.0 0.4
26/01:30am 17.4 19.0 16.9 97 0.3 W 4 6 2 3 1012.3 1012.2 0.4
26/01:00am 17.6 19.3 17.1 97 0.3 W 4 6 2 3 1012.6 1012.5 0.4
26/12:30am 17.6 18.9 17.0 96 0.4 WSW 6 9 3 5 1013.2 1013.1 0.4
26/12:00am 17.6 18.7 17.0 96 0.4 W 7 9 4 5 1013.4 1013.3 0.4
 
Date/Time
EDT
Temp
°C
App
Temp
°C
Dew
Point
Rel
Hum
%
Delta-T
°C
Wind Press
QNH
hPa
Press
MSL
hPa
Rain
since 9 am
mm
Dir
 
Spd
km/h
Gust
km/h
Spd
kts
Gust
kts
25/11:30pm 17.6 18.2 16.8 95 0.5 W 9 13 5 7 1013.9 1013.8 0.4
25/11:00pm 17.6 18.7 17.0 96 0.4 W 7 13 4 7 1014.1 1014.0 0.4
25/10:30pm 17.7 18.7 16.9 95 0.5 W 7 11 4 6 1014.4 1014.3 0.4
25/10:00pm 17.8 19.0 17.3 97 0.3 WSW 7 9 4 5 1014.7 1014.6 0.4
25/09:30pm 17.9 19.1 17.3 96 0.4 WSW 7 11 4 6 1014.9 1014.8 0.4
25/09:00pm 17.7 18.8 17.1 96 0.4 W 7 11 4 6 1014.9 1014.8 0.4
25/08:30pm 17.7 19.0 17.1 96 0.4 WNW 6 7 3 4 1014.9 1014.8 0.4
25/08:00pm 18.2 19.4 16.9 92 0.8 WNW 6 7 3 4 1015.0 1014.9 0.4
25/07:30pm 19.3 20.5 17.4 89 1.2 WNW 7 11 4 6 1015.3 1015.2 0.4
25/07:00pm 20.0 22.1 16.2 79 2.3 CALM 0 6 0 3 1015.5 1015.4 0.4
25/06:30pm 20.6 20.8 15.8 74 2.9 SSE 9 13 5 7 1015.3 1015.2 0.4
25/06:00pm 20.6 20.7 15.6 73 3.0 S 9 11 5 6 1015.5 1015.4 0.4

Other Formats:

Comma delimited format used in spreadsheet applications
http://www.bom.gov.au/fwo/IDN60801/IDN60801.95937.axf

JavaScript Object Notation format (JSON) in row-major order
http://www.bom.gov.au/fwo/IDN60801/IDN60801.95937.json